createdAt,value
2018-05-25T00:00:33.009Z,0
2018-05-25T00:01:32.748Z,0
2018-05-25T00:02:33.015Z,0
2018-05-25T00:03:33.254Z,0
2018-05-25T00:04:33.559Z,0
2018-05-25T00:05:33.006Z,0
2018-05-25T00:06:33.005Z,0
2018-05-25T00:07:33.257Z,0
2018-05-25T00:08:33.243Z,0
2018-05-25T00:09:33.512Z,0
2018-05-25T00:10:33.267Z,0
2018-05-25T00:11:33.269Z,0
2018-05-25T00:12:33.545Z,0
2018-05-25T00:13:33.561Z,0
2018-05-25T00:14:33.261Z,0
2018-05-25T00:15:33.530Z,0
2018-05-25T00:16:33.315Z,0
2018-05-25T00:17:32.993Z,0
2018-05-25T00:18:33.009Z,0
2018-05-25T00:19:33.254Z,0
2018-05-25T00:20:33.015Z,0
2018-05-25T00:21:33.523Z,0
2018-05-25T00:22:33.507Z,0
2018-05-25T00:23:33.007Z,0
2018-05-25T00:24:33.250Z,0
2018-05-25T00:25:33.529Z,0
2018-05-25T00:26:33.524Z,0
2018-05-25T00:27:33.002Z,0
2018-05-25T00:28:33.509Z,0
2018-05-25T00:29:32.721Z,0
2018-05-25T00:30:32.975Z,0
2018-05-25T00:31:33.035Z,0
2018-05-25T00:32:33.518Z,0
2018-05-25T00:33:33.251Z,0
2018-05-25T00:34:33.254Z,0
2018-05-25T00:35:33.516Z,0
2018-05-25T00:36:33.240Z,0
2018-05-25T00:37:33.234Z,0
2018-05-25T00:38:32.984Z,0
2018-05-25T00:39:32.975Z,0
2018-05-25T00:40:33.529Z,0
2018-05-25T00:41:33.238Z,0
2018-05-25T00:42:34.034Z,0
2018-05-25T00:43:33.510Z,0
2018-05-25T00:44:32.990Z,0
2018-05-25T00:45:33.246Z,0
2018-05-25T00:46:33.490Z,0
2018-05-25T00:47:33.525Z,0
2018-05-25T00:48:33.239Z,0
2018-05-25T00:49:33.510Z,0
2018-05-25T00:50:33.367Z,0
2018-05-25T00:51:33.495Z,0
2018-05-25T00:52:33.242Z,0
2018-05-25T00:53:32.983Z,0
2018-05-25T00:54:33.017Z,0
2018-05-25T00:55:33.526Z,0
2018-05-25T00:56:32.963Z,0
2018-05-25T00:57:33.247Z,0
2018-05-25T00:58:33.341Z,0
2018-05-25T00:59:32.777Z,0
2018-05-25T01:00:32.966Z,0
2018-05-25T01:01:33.257Z,0
2018-05-25T01:02:33.499Z,0
2018-05-25T01:03:33.219Z,0
2018-05-25T01:04:33.480Z,0
2018-05-25T01:05:33.498Z,0
2018-05-25T01:06:33.221Z,0
2018-05-25T01:07:33.509Z,0
2018-05-25T01:08:33.235Z,0
2018-05-25T01:09:33.242Z,0
2018-05-25T01:10:33.476Z,0
2018-05-25T01:11:32.971Z,0
2018-05-25T01:12:33.235Z,0
2018-05-25T01:13:33.481Z,0
2018-05-25T01:14:33.493Z,0
2018-05-25T01:15:33.236Z,0
2018-05-25T01:16:33.503Z,0
2018-05-25T01:17:33.226Z,0
2018-05-25T01:18:33.475Z,0
2018-05-25T01:19:32.967Z,0
2018-05-25T01:20:33.222Z,0
2018-05-25T01:21:33.234Z,0
2018-05-25T01:22:32.957Z,0
2018-05-25T01:23:33.748Z,0
2018-05-25T01:24:33.201Z,0
2018-05-25T01:25:33.214Z,0
2018-05-25T01:26:33.479Z,0
2018-05-25T01:27:33.221Z,0
2018-05-25T01:28:33.482Z,0
2018-05-25T01:29:33.236Z,0
2018-05-25T01:30:33.485Z,0
2018-05-25T01:31:32.934Z,0
2018-05-25T01:32:33.479Z,0
2018-05-25T01:33:33.198Z,0
2018-05-25T01:34:32.942Z,0
2018-05-25T01:35:33.195Z,0
2018-05-25T01:36:33.210Z,0
2018-05-25T01:37:33.228Z,0
2018-05-25T01:38:32.936Z,0
2018-05-25T01:39:33.187Z,0
2018-05-25T01:40:32.928Z,0
2018-05-25T01:41:32.925Z,0
2018-05-25T01:42:32.695Z,0
2018-05-25T01:43:33.197Z,0
2018-05-25T01:44:33.195Z,0
2018-05-25T01:45:33.223Z,0
2018-05-25T01:46:33.186Z,0
2018-05-25T01:47:33.181Z,0
2018-05-25T01:48:33.206Z,0
2018-05-25T01:49:33.179Z,0
2018-05-25T01:50:33.197Z,0
2018-05-25T01:51:33.178Z,0
2018-05-25T01:52:33.070Z,0
2018-05-25T01:53:33.448Z,0
2018-05-25T01:54:33.189Z,0
2018-05-25T01:55:33.173Z,0
2018-05-25T01:56:32.913Z,0
2018-05-25T01:57:33.187Z,0
2018-05-25T01:58:33.166Z,0
2018-05-25T01:59:33.174Z,0
2018-05-25T02:00:33.439Z,0
2018-05-25T02:01:33.439Z,0
2018-05-25T02:02:33.443Z,0
2018-05-25T02:03:33.179Z,0
2018-05-25T02:04:33.238Z,0
2018-05-25T02:05:32.970Z,0
2018-05-25T02:06:32.913Z,0
2018-05-25T02:07:33.176Z,0
2018-05-25T02:08:33.175Z,0
2018-05-25T02:09:33.477Z,0
2018-05-25T02:10:32.905Z,0
2018-05-25T02:11:32.640Z,0
2018-05-25T02:12:33.153Z,0
2018-05-25T02:13:33.149Z,0
2018-05-25T02:14:33.412Z,0
2018-05-25T02:15:32.893Z,0
2018-05-25T02:16:33.414Z,0
2018-05-25T02:17:33.413Z,0
2018-05-25T02:18:33.183Z,0
2018-05-25T02:19:33.200Z,0
2018-05-25T02:20:33.414Z,0
2018-05-25T02:21:33.148Z,0
2018-05-25T02:22:32.623Z,0
2018-05-25T02:23:33.135Z,0
2018-05-25T02:24:32.880Z,0
2018-05-25T02:25:32.894Z,0
2018-05-25T02:26:33.396Z,0
2018-05-25T02:27:32.934Z,0
2018-05-25T02:28:33.135Z,0
2018-05-25T02:29:33.129Z,0
2018-05-25T02:30:33.403Z,0
2018-05-25T02:31:33.141Z,0
2018-05-25T02:32:33.139Z,0
2018-05-25T02:33:33.128Z,0
2018-05-25T02:34:33.392Z,0
2018-05-25T02:35:33.442Z,0
2018-05-25T02:36:33.409Z,0
2018-05-25T02:37:33.446Z,0
2018-05-25T02:38:33.204Z,0
2018-05-25T02:39:33.201Z,0
2018-05-25T02:40:32.868Z,0
2018-05-25T02:41:33.129Z,0
2018-05-25T02:42:33.124Z,0
2018-05-25T02:43:33.668Z,0
2018-05-25T02:44:33.111Z,0
2018-05-25T02:45:32.848Z,4
2018-05-25T02:46:33.111Z,4
2018-05-25T02:47:33.375Z,4
2018-05-25T02:48:33.120Z,0
2018-05-25T02:49:33.382Z,0
2018-05-25T02:50:33.113Z,4
2018-05-25T02:51:33.103Z,4
2018-05-25T02:52:33.105Z,4
2018-05-25T02:53:33.374Z,4
2018-05-25T02:54:33.121Z,4
2018-05-25T02:55:33.099Z,8
2018-05-25T02:56:33.096Z,4
2018-05-25T02:57:33.371Z,8
2018-05-25T02:58:33.095Z,8
2018-05-25T02:59:32.835Z,4
2018-05-25T03:00:33.375Z,8
2018-05-25T03:01:33.360Z,8
2018-05-25T03:02:33.375Z,12
2018-05-25T03:03:32.832Z,12
2018-05-25T03:04:33.351Z,16
2018-05-25T03:05:33.363Z,16
2018-05-25T03:06:33.390Z,16
2018-05-25T03:07:32.815Z,20
2018-05-25T03:08:33.083Z,24
2018-05-25T03:09:32.811Z,24
2018-05-25T03:10:33.350Z,28
2018-05-25T03:11:32.832Z,32
2018-05-25T03:12:33.078Z,36
2018-05-25T03:13:37.905Z,40
2018-05-25T03:14:32.560Z,48
2018-05-25T03:15:33.115Z,56
2018-05-25T03:16:32.869Z,60
2018-05-25T03:17:32.812Z,68
2018-05-25T03:18:33.077Z,72
2018-05-25T03:19:32.542Z,84
2018-05-25T03:20:33.061Z,92
2018-05-25T03:21:33.096Z,104
2018-05-25T03:22:32.796Z,112
2018-05-25T03:23:32.540Z,124
2018-05-25T03:24:33.059Z,136
2018-05-25T03:25:32.813Z,152
2018-05-25T03:26:33.060Z,164
2018-05-25T03:27:32.784Z,180
2018-05-25T03:28:33.064Z,196
2018-05-25T03:29:32.794Z,212
2018-05-25T03:30:33.053Z,228
2018-05-25T03:31:33.062Z,248
2018-05-25T03:32:33.302Z,268
2018-05-25T03:33:33.036Z,288
2018-05-25T03:34:33.044Z,312
2018-05-25T03:35:32.787Z,332
2018-05-25T03:36:32.790Z,356
2018-05-25T03:37:33.283Z,380
2018-05-25T03:38:32.519Z,404
2018-05-25T03:39:33.035Z,424
2018-05-25T03:40:32.771Z,448
2018-05-25T03:41:32.783Z,480
2018-05-25T03:42:33.276Z,508
2018-05-25T03:43:32.767Z,548
2018-05-25T03:44:33.279Z,592
2018-05-25T03:45:33.034Z,644
2018-05-25T03:46:32.757Z,692
2018-05-25T03:47:32.766Z,744
2018-05-25T03:48:33.019Z,792
2018-05-25T03:49:33.299Z,840
2018-05-25T03:50:33.288Z,868
2018-05-25T03:51:32.489Z,912
2018-05-25T03:52:32.493Z,960
2018-05-25T03:53:32.742Z,1012
2018-05-25T03:54:34.081Z,1060
2018-05-25T03:55:33.002Z,1112
2018-05-25T03:56:33.257Z,1164
2018-05-25T03:57:33.262Z,1220
2018-05-25T03:58:32.763Z,1272
2018-05-25T03:59:32.755Z,1336
2018-05-25T04:00:32.982Z,1492
2018-05-25T04:01:33.033Z,1724
2018-05-25T04:02:32.994Z,1980
2018-05-25T04:03:32.994Z,2128
2018-05-25T04:04:33.245Z,2228
2018-05-25T04:05:33.249Z,2336
2018-05-25T04:06:33.119Z,2384
2018-05-25T04:07:32.988Z,2388
2018-05-25T04:08:33.010Z,2364
2018-05-25T04:09:32.465Z,2328
2018-05-25T04:10:33.248Z,2312
2018-05-25T04:11:33.244Z,2328
2018-05-25T04:12:32.728Z,2396
2018-05-25T04:13:32.979Z,2572
2018-05-25T04:14:33.180Z,2860
2018-05-25T04:15:32.728Z,3120
2018-05-25T04:16:32.980Z,3376
2018-05-25T04:17:32.981Z,3636
2018-05-25T04:18:33.243Z,3944
2018-05-25T04:19:33.002Z,4224
2018-05-25T04:20:33.038Z,4412
2018-05-25T04:21:33.249Z,4540
2018-05-25T04:22:32.730Z,4680
2018-05-25T04:23:32.974Z,4796
2018-05-25T04:24:32.738Z,4948
2018-05-25T04:25:32.990Z,5060
2018-05-25T04:26:33.257Z,5264
2018-05-25T04:27:32.768Z,5416
2018-05-25T04:28:33.246Z,5616
2018-05-25T04:29:32.737Z,5812
2018-05-25T04:30:33.243Z,5936
2018-05-25T04:31:32.994Z,6036
2018-05-25T04:32:32.987Z,6128
2018-05-25T04:33:33.285Z,6368
2018-05-25T04:34:32.750Z,6484
2018-05-25T04:35:32.785Z,6592
2018-05-25T04:36:33.257Z,6636
2018-05-25T04:37:33.010Z,6760
2018-05-25T04:38:33.325Z,6788
2018-05-25T04:39:33.284Z,6840
2018-05-25T04:40:33.016Z,6704
2018-05-25T04:41:33.025Z,6472
2018-05-25T04:42:33.283Z,6000
2018-05-25T04:43:33.006Z,5420
2018-05-25T04:44:32.764Z,4992
2018-05-25T04:45:33.291Z,4768
2018-05-25T04:46:33.291Z,4620
2018-05-25T04:47:33.038Z,4572
2018-05-25T04:48:32.775Z,4600
2018-05-25T04:49:33.065Z,4688
2018-05-25T04:50:33.295Z,4824
2018-05-25T04:51:33.043Z,4992
2018-05-25T04:52:33.126Z,5180
2018-05-25T04:53:33.299Z,5380
2018-05-25T04:54:32.800Z,5624
2018-05-25T04:55:33.064Z,5988
2018-05-25T04:56:33.051Z,6392
2018-05-25T04:57:32.793Z,6744
2018-05-25T04:58:33.064Z,6992
2018-05-25T04:59:33.072Z,7120
2018-05-25T05:00:32.806Z,7240
2018-05-25T05:01:32.545Z,7372
2018-05-25T05:02:33.069Z,7436
2018-05-25T05:03:33.087Z,7472
2018-05-25T05:04:33.064Z,7232
2018-05-25T05:05:33.334Z,6888
2018-05-25T05:06:33.057Z,6592
2018-05-25T05:07:33.336Z,6280
2018-05-25T05:08:32.839Z,5972
2018-05-25T05:09:33.335Z,5748
2018-05-25T05:10:32.585Z,5572
2018-05-25T05:11:33.344Z,5388
2018-05-25T05:12:33.336Z,5244
2018-05-25T05:13:33.099Z,5132
2018-05-25T05:14:33.666Z,5080
2018-05-25T05:15:33.359Z,5048
2018-05-25T05:16:33.346Z,5040
2018-05-25T05:17:33.111Z,5040
2018-05-25T05:18:33.347Z,5076
2018-05-25T05:19:33.093Z,5144
2018-05-25T05:20:33.111Z,5180
2018-05-25T05:21:33.349Z,5216
2018-05-25T05:22:33.093Z,5264
2018-05-25T05:23:33.097Z,5288
2018-05-25T05:24:33.099Z,5272
2018-05-25T05:25:32.851Z,5244
2018-05-25T05:26:32.893Z,5240
2018-05-25T05:27:33.128Z,5260
2018-05-25T05:28:33.142Z,5280
2018-05-25T05:29:33.361Z,5300
2018-05-25T05:30:33.380Z,5324
2018-05-25T05:31:33.113Z,5364
2018-05-25T05:32:33.131Z,5376
2018-05-25T05:33:33.131Z,5440
2018-05-25T05:34:33.116Z,5468
2018-05-25T05:35:33.380Z,5504
2018-05-25T05:36:33.409Z,5556
2018-05-25T05:37:33.382Z,5600
2018-05-25T05:38:32.868Z,5632
2018-05-25T05:39:33.144Z,5672
2018-05-25T05:40:33.384Z,5724
2018-05-25T05:41:32.857Z,5772
2018-05-25T05:42:33.150Z,5848
2018-05-25T05:43:32.858Z,5940
2018-05-25T05:44:33.559Z,6032
2018-05-25T05:45:33.409Z,6156
2018-05-25T05:46:33.143Z,6256
2018-05-25T05:47:33.139Z,6372
2018-05-25T05:48:33.139Z,6388
2018-05-25T05:49:32.869Z,6624
2018-05-25T05:50:32.904Z,6764
2018-05-25T05:51:33.141Z,6980
2018-05-25T05:52:33.154Z,7256
2018-05-25T05:53:33.140Z,7576
2018-05-25T05:54:33.130Z,7964
2018-05-25T05:55:32.890Z,8512
2018-05-25T05:56:33.408Z,9148
2018-05-25T05:57:33.402Z,10064
2018-05-25T05:58:33.410Z,11104
2018-05-25T05:59:33.407Z,11772
2018-05-25T06:00:33.436Z,12148
2018-05-25T06:01:33.155Z,12428
2018-05-25T06:02:32.885Z,12944
2018-05-25T06:03:32.878Z,13308
2018-05-25T06:04:33.500Z,13544
2018-05-25T06:05:33.411Z,13736
2018-05-25T06:06:33.416Z,13904
2018-05-25T06:07:33.148Z,13952
2018-05-25T06:08:33.158Z,14072
2018-05-25T06:09:33.153Z,14156
2018-05-25T06:10:33.167Z,14144
2018-05-25T06:11:33.179Z,14192
2018-05-25T06:12:33.660Z,14292
2018-05-25T06:13:33.196Z,14320
2018-05-25T06:24:25.246Z,15172
2018-05-25T06:25:25.669Z,15208
2018-05-25T06:26:25.315Z,15024
2018-05-25T06:27:25.258Z,14972
2018-05-25T06:28:25.038Z,15012
2018-05-25T06:29:25.017Z,14992
2018-05-25T06:30:25.040Z,15000
2018-05-25T06:31:25.290Z,15000
2018-05-25T06:32:25.295Z,14996
2018-05-25T06:33:25.298Z,14940
2018-05-25T06:34:25.293Z,14176
2018-05-25T06:35:25.341Z,12708
2018-05-25T06:36:25.301Z,15272
2018-05-25T06:37:25.041Z,15352
2018-05-25T06:38:25.319Z,14768
2018-05-25T06:39:25.348Z,14680
2018-05-25T06:40:25.345Z,15332
2018-05-25T06:41:25.092Z,15356
2018-05-25T06:42:25.362Z,15352
2018-05-25T06:43:25.350Z,15352
2018-05-25T06:44:25.795Z,15328
2018-05-25T06:45:25.147Z,15312
2018-05-25T06:46:25.628Z,15296
2018-05-25T06:47:25.118Z,15236
2018-05-25T06:48:25.140Z,15352
2018-05-25T06:49:25.653Z,15320
2018-05-25T06:50:25.672Z,15312
2018-05-25T06:51:25.414Z,14716
2018-05-25T06:52:25.686Z,14692
2018-05-25T06:53:25.442Z,15192
2018-05-25T06:54:25.436Z,15176
2018-05-25T06:55:25.461Z,15156
2018-05-25T06:56:25.442Z,14332
2018-05-25T06:57:25.726Z,13940
2018-05-25T06:58:25.738Z,14308
2018-05-25T06:59:25.533Z,14572
2018-05-25T07:00:25.489Z,14704
2018-05-25T07:01:25.765Z,14800
2018-05-25T07:02:25.772Z,14816
2018-05-25T07:03:25.240Z,14828
2018-05-25T07:04:25.782Z,14832
2018-05-25T07:05:25.778Z,14900
2018-05-25T07:06:25.781Z,14848
2018-05-25T07:07:25.540Z,14844
2018-05-25T07:08:25.552Z,14764
2018-05-25T07:09:25.089Z,14760
2018-05-25T07:10:25.300Z,14676
2018-05-25T07:11:25.822Z,14728
2018-05-25T07:12:25.317Z,14688
2018-05-25T07:13:25.587Z,14672
2018-05-25T07:14:25.606Z,14604
2018-05-25T07:15:25.077Z,14500
2018-05-25T07:16:25.606Z,14356
2018-05-25T07:17:25.370Z,14280
2018-05-25T07:18:25.630Z,14316
2018-05-25T07:19:25.372Z,14480
2018-05-25T07:20:25.640Z,14660
2018-05-25T07:21:25.758Z,14764
2018-05-25T07:22:25.390Z,14808
2018-05-25T07:23:25.663Z,14844
2018-05-25T07:24:25.414Z,14836
2018-05-25T07:25:25.683Z,14776
2018-05-25T07:26:25.956Z,14720
2018-05-25T07:27:26.004Z,14696
2018-05-25T07:28:25.990Z,14692
2018-05-25T07:29:25.724Z,14672
2018-05-25T07:30:25.743Z,14636
2018-05-25T07:31:25.476Z,14612
2018-05-25T07:32:25.741Z,14580
2018-05-25T07:33:25.935Z,14544
2018-05-25T07:34:26.033Z,14556
2018-05-25T07:35:25.510Z,14472
2018-05-25T07:36:25.775Z,14488
2018-05-25T07:37:25.783Z,14516
2018-05-25T07:38:26.097Z,14476
2018-05-25T07:39:26.548Z,14348
2018-05-25T07:40:25.826Z,14332
2018-05-25T07:41:25.817Z,14292
2018-05-25T07:42:25.858Z,14276
2018-05-25T07:43:25.843Z,14192
2018-05-25T07:44:25.575Z,14140
2018-05-25T07:45:25.853Z,14084
2018-05-25T07:46:26.178Z,14072
2018-05-25T07:47:25.883Z,14032
2018-05-25T07:48:25.623Z,13988
2018-05-25T07:49:25.359Z,14048
2018-05-25T07:50:26.147Z,13988
2018-05-25T07:51:25.884Z,13948
2018-05-25T07:52:25.653Z,13416
2018-05-25T07:53:25.668Z,13336
2018-05-25T07:54:26.417Z,13560
2018-05-25T07:55:25.673Z,13684
2018-05-25T07:56:25.692Z,13588
2018-05-25T07:57:26.231Z,13572
2018-05-25T07:58:26.236Z,13388
2018-05-25T07:59:25.693Z,13400
2018-05-25T08:00:26.435Z,13216
2018-05-25T08:01:26.081Z,13220
2018-05-25T08:02:26.289Z,13036
2018-05-25T08:03:25.736Z,12868
2018-05-25T08:04:25.764Z,12864
2018-05-25T08:05:26.026Z,12872
2018-05-25T08:06:26.130Z,12816
2018-05-25T08:07:26.058Z,12764
2018-05-25T08:08:26.063Z,12712
2018-05-25T08:09:26.307Z,12692
2018-05-25T08:10:26.080Z,12652
2018-05-25T08:11:25.827Z,12536
2018-05-25T08:12:25.806Z,12472
2018-05-25T08:13:26.360Z,12392
2018-05-25T08:14:25.834Z,12264
2018-05-25T08:15:25.840Z,12196
2018-05-25T08:16:26.379Z,12084
2018-05-25T08:17:26.410Z,11984
2018-05-25T08:18:26.130Z,11904
2018-05-25T08:19:25.883Z,11816
2018-05-25T08:20:25.906Z,11720
2018-05-25T08:21:25.900Z,11652
2018-05-25T08:22:26.441Z,11596
2018-05-25T08:23:26.189Z,11528
2018-05-25T08:24:26.436Z,11508
2018-05-25T08:25:26.447Z,11464
2018-05-25T08:26:26.199Z,11400
2018-05-25T08:27:25.983Z,11348
2018-05-25T08:28:25.984Z,11304
2018-05-25T08:29:26.262Z,11240
2018-05-25T08:30:26.468Z,11160
2018-05-25T08:31:26.024Z,11128
2018-05-25T08:32:26.307Z,11080
2018-05-25T08:33:26.528Z,11032
2018-05-25T08:34:25.778Z,11032
2018-05-25T08:35:26.053Z,10912
2018-05-25T08:36:26.332Z,10848
2018-05-25T08:37:26.330Z,10808
2018-05-25T08:38:26.311Z,10732
2018-05-25T08:39:26.085Z,10636
2018-05-25T08:40:26.083Z,10544
2018-05-25T08:41:26.353Z,10468
2018-05-25T08:42:26.604Z,10404
2018-05-25T08:43:26.552Z,10332
2018-05-25T08:44:26.370Z,10312
2018-05-25T08:45:26.386Z,10236
2018-05-25T08:46:26.387Z,10184
2018-05-25T08:47:26.162Z,10144
2018-05-25T08:48:26.398Z,10104
2018-05-25T08:49:26.213Z,10048
2018-05-25T08:50:25.910Z,10020
2018-05-25T08:51:26.451Z,10044
2018-05-25T08:52:26.468Z,9980
2018-05-25T08:53:26.443Z,9956
2018-05-25T08:54:26.463Z,9932
2018-05-25T08:55:26.216Z,9872
2018-05-25T08:56:26.199Z,9864
2018-05-25T08:57:26.474Z,9828
2018-05-25T08:58:26.488Z,9760
2018-05-25T08:59:26.222Z,9796
2018-05-25T09:00:26.286Z,9744
2018-05-25T09:01:26.549Z,9660
2018-05-25T09:02:26.795Z,9648
2018-05-25T09:03:26.674Z,9596
2018-05-25T09:04:26.528Z,9568
2018-05-25T09:05:26.787Z,9572
2018-05-25T09:06:26.288Z,9532
2018-05-25T09:07:26.042Z,9504
2018-05-25T09:08:26.579Z,9476
2018-05-25T09:09:26.559Z,9480
2018-05-25T09:10:26.577Z,9528
2018-05-25T09:11:26.851Z,9444
2018-05-25T09:12:26.768Z,9484
2018-05-25T09:13:26.580Z,9472
2018-05-25T09:14:26.886Z,9508
2018-05-25T09:15:26.860Z,9500
2018-05-25T09:16:26.602Z,9496
2018-05-25T09:17:26.605Z,9540
2018-05-25T09:18:26.360Z,9540
2018-05-25T09:19:27.679Z,9588
2018-05-25T09:20:26.637Z,9648
2018-05-25T09:21:26.661Z,9624
2018-05-25T09:22:26.641Z,9648
2018-05-25T09:23:26.391Z,9668
2018-05-25T09:24:26.384Z,9624
2018-05-25T09:25:26.922Z,9624
2018-05-25T09:26:26.408Z,9596
2018-05-25T09:27:26.415Z,9600
2018-05-25T09:28:26.664Z,9596
2018-05-25T09:29:26.932Z,9652
2018-05-25T09:30:26.684Z,9640
2018-05-25T09:31:26.960Z,9644
2018-05-25T09:32:26.429Z,9648
2018-05-25T09:33:26.976Z,9636
2018-05-25T09:34:26.696Z,9656
2018-05-25T09:35:27.006Z,9688
2018-05-25T09:36:26.920Z,9688
2018-05-25T09:37:26.479Z,9700
2018-05-25T09:38:26.740Z,9736
2018-05-25T09:39:26.480Z,9740
2018-05-25T09:40:26.463Z,9684
2018-05-25T09:41:27.023Z,9664
2018-05-25T09:42:26.484Z,9640
2018-05-25T09:43:27.226Z,9648
2018-05-25T09:44:26.572Z,9616
2018-05-25T09:45:26.500Z,9576
2018-05-25T09:46:26.801Z,9544
2018-05-25T09:47:26.535Z,9556
2018-05-25T09:48:26.553Z,9428
2018-05-25T09:49:27.038Z,9412
2018-05-25T09:50:26.536Z,9416
2018-05-25T09:51:26.296Z,9332
2018-05-25T09:52:26.816Z,9284
2018-05-25T09:53:26.808Z,9200
2018-05-25T09:54:26.858Z,9136
2018-05-25T09:55:26.809Z,9088
2018-05-25T09:56:26.561Z,9112
2018-05-25T09:57:27.093Z,9044
2018-05-25T09:58:27.116Z,9012
2018-05-25T09:59:26.816Z,9060
2018-05-25T10:00:26.323Z,9140
2018-05-25T10:01:26.863Z,9100
2018-05-25T10:02:26.592Z,9016
2018-05-25T10:03:26.680Z,8800
2018-05-25T10:04:26.629Z,8588
2018-05-25T10:05:26.871Z,8628
2018-05-25T10:06:27.127Z,8476
2018-05-25T10:07:27.133Z,8428
2018-05-25T10:08:26.615Z,8524
2018-05-25T10:09:26.911Z,8604
2018-05-25T10:10:26.381Z,8596
2018-05-25T10:11:26.642Z,8536
2018-05-25T10:12:26.913Z,8408
2018-05-25T10:13:26.908Z,8252
2018-05-25T10:14:26.965Z,8148
2018-05-25T10:15:26.917Z,8112
2018-05-25T10:16:27.193Z,8052
2018-05-25T10:17:26.433Z,8032
2018-05-25T10:18:26.935Z,7996
2018-05-25T10:19:26.429Z,7952
2018-05-25T10:20:26.703Z,7980
2018-05-25T10:21:27.226Z,7992
2018-05-25T10:22:26.955Z,7904
2018-05-25T10:53:47.776Z,8048
2018-05-25T10:54:48.050Z,8012
2018-05-25T10:55:47.503Z,8052
2018-05-25T10:56:48.049Z,8108
2018-05-25T10:57:47.798Z,8140
2018-05-25T10:58:47.770Z,8160
2018-05-25T10:59:47.822Z,8160
2018-05-25T11:00:47.780Z,8200
2018-05-25T11:01:48.048Z,8236
2018-05-25T11:02:48.054Z,8240
2018-05-25T11:03:48.439Z,8104
2018-05-25T11:04:48.332Z,7968
2018-05-25T11:05:48.058Z,8000
2018-05-25T11:06:47.800Z,7968
2018-05-25T11:07:48.101Z,7956
2018-05-25T11:08:48.356Z,7892
2018-05-25T11:09:48.092Z,7844
2018-05-25T11:10:48.125Z,7844
2018-05-25T11:11:48.092Z,7944
2018-05-25T11:12:48.110Z,8048
2018-05-25T11:13:48.103Z,8068
2018-05-25T11:14:48.113Z,8084
2018-05-25T11:15:48.110Z,7984
2018-05-25T11:16:48.121Z,7884
2018-05-25T11:17:48.153Z,7828
2018-05-25T11:18:48.432Z,7744
2018-05-25T11:19:47.865Z,7676
2018-05-25T11:20:47.878Z,7684
2018-05-25T11:21:48.401Z,7744
2018-05-25T11:22:48.409Z,7876
2018-05-25T11:23:48.167Z,8016
2018-05-25T11:24:48.164Z,8120
2018-05-25T11:25:47.931Z,8224
2018-05-25T11:26:47.911Z,8320
2018-05-25T11:27:48.177Z,8388
2018-05-25T11:28:48.449Z,8384
2018-05-25T11:29:47.933Z,8396
2018-05-25T11:30:48.180Z,8364
2018-05-25T11:31:48.474Z,8320
2018-05-25T11:32:48.464Z,8316
2018-05-25T11:33:48.499Z,8384
2018-05-25T11:34:48.478Z,8304
2018-05-25T11:35:47.701Z,8256
2018-05-25T11:36:47.956Z,8232
2018-05-25T11:37:48.242Z,8240
2018-05-25T11:38:48.532Z,8272
2018-05-25T11:39:47.990Z,8340
2018-05-25T11:40:48.263Z,8580
2018-05-25T11:41:48.249Z,8780
2018-05-25T11:42:48.320Z,8568
2018-05-25T11:43:48.280Z,8500
2018-05-25T11:44:48.279Z,8760
2018-05-25T11:45:48.278Z,8752
2018-05-25T11:46:48.292Z,8700
2018-05-25T11:47:48.554Z,8752
2018-05-25T11:48:48.311Z,8752
2018-05-25T11:49:48.081Z,8804
2018-05-25T11:50:48.336Z,8900
2018-05-25T11:51:48.585Z,8920
2018-05-25T11:52:48.055Z,8800
2018-05-25T11:53:49.920Z,8668
2018-05-25T11:54:48.099Z,8612
2018-05-25T11:55:48.343Z,8608
2018-05-25T11:56:48.343Z,8644
2018-05-25T11:57:48.645Z,8724
2018-05-25T11:58:48.611Z,8776
2018-05-25T11:59:48.106Z,8736
2018-05-25T12:00:48.120Z,8692
2018-05-25T12:01:48.430Z,8584
2018-05-25T12:02:48.117Z,8492
2018-05-25T12:03:48.629Z,8388
2018-05-25T12:04:48.380Z,8252
2018-05-25T12:05:48.123Z,8164
2018-05-25T12:06:48.494Z,8224
2018-05-25T12:07:48.673Z,8260
2018-05-25T12:08:48.484Z,8244
2018-05-25T12:09:48.412Z,8316
2018-05-25T12:10:48.416Z,8340
2018-05-25T12:11:48.171Z,8276
2018-05-25T12:12:48.421Z,8220
2018-05-25T12:13:48.186Z,8176
2018-05-25T12:14:48.693Z,8224
2018-05-25T12:15:48.710Z,8192
2018-05-25T12:16:48.197Z,8180
2018-05-25T12:17:48.752Z,8244
2018-05-25T12:18:48.735Z,8184
2018-05-25T12:19:48.510Z,8144
2018-05-25T12:20:47.950Z,8064
2018-05-25T12:21:48.467Z,8076
2018-05-25T12:22:48.473Z,7880
2018-05-25T12:23:48.482Z,7620
2018-05-25T12:24:48.503Z,6452
2018-05-25T12:25:48.784Z,5600
2018-05-25T12:26:48.251Z,5660
2018-05-25T12:27:48.240Z,5756
2018-05-25T12:28:48.765Z,5860
2018-05-25T12:29:48.259Z,6536
2018-05-25T12:30:48.518Z,7744
2018-05-25T12:31:48.281Z,7732
2018-05-25T12:32:48.017Z,7696
2018-05-25T12:33:48.534Z,7692
2018-05-25T12:34:48.810Z,7744
2018-05-25T12:35:48.553Z,7744
2018-05-25T12:36:48.540Z,7792
2018-05-25T12:37:48.554Z,7868
2018-05-25T12:38:48.572Z,7924
2018-05-25T12:39:48.565Z,7824
2018-05-25T12:40:48.567Z,7812
2018-05-25T12:41:48.314Z,7856
2018-05-25T12:42:48.585Z,7888
2018-05-25T12:43:48.590Z,7908
2018-05-25T12:44:48.593Z,7836
2018-05-25T12:45:48.854Z,7848
2018-05-25T12:46:48.338Z,7832
2018-05-25T12:47:48.598Z,7796
2018-05-25T12:48:48.375Z,7852
2018-05-25T12:49:48.620Z,7880
2018-05-25T12:50:48.888Z,7728
2018-05-25T12:51:48.884Z,7692
2018-05-25T12:52:48.894Z,7672
2018-05-25T12:53:48.908Z,7348
2018-05-25T12:54:48.402Z,7136
2018-05-25T12:55:48.393Z,7036
2018-05-25T12:56:49.120Z,6940
2018-05-25T12:57:48.913Z,6884
2018-05-25T12:58:48.674Z,6852
2018-05-25T12:59:48.664Z,6776
2018-05-25T13:00:48.406Z,6712
2018-05-25T13:01:48.690Z,6680
2018-05-25T13:02:48.165Z,6844
2018-05-25T13:03:48.427Z,6948
2018-05-25T13:04:48.436Z,6940
2018-05-25T13:05:48.701Z,6892
2018-05-25T13:06:48.710Z,6760
2018-05-25T13:07:48.717Z,6632
2018-05-25T13:08:48.723Z,6536
2018-05-25T13:09:49.781Z,6508
2018-05-25T13:10:48.211Z,6380
2018-05-25T13:11:48.724Z,6380
2018-05-25T13:12:48.983Z,6396
2018-05-25T13:13:48.472Z,6404
2018-05-25T13:14:48.751Z,6380
2018-05-25T13:15:48.998Z,6440
2018-05-25T13:16:48.760Z,6520
2018-05-25T13:17:49.021Z,5332
2018-05-25T13:18:48.517Z,5184
2018-05-25T13:19:49.041Z,5272
2018-05-25T13:20:48.774Z,5612
2018-05-25T13:21:49.225Z,7116
2018-05-25T13:22:48.798Z,7152
2018-05-25T13:23:48.790Z,7152
2018-05-25T13:24:49.086Z,7064
2018-05-25T13:25:48.816Z,6996
2018-05-25T13:26:48.827Z,7012
2018-05-25T13:27:48.299Z,7084
2018-05-25T13:28:48.564Z,7120
2018-05-25T13:29:48.850Z,7008
2018-05-25T13:30:48.299Z,5500
2018-05-25T13:31:48.830Z,5544
2018-05-25T13:32:48.576Z,5616
2018-05-25T13:33:49.096Z,5644
2018-05-25T13:34:49.107Z,5756
2018-05-25T13:35:48.842Z,5808
2018-05-25T13:36:49.112Z,5724
2018-05-25T13:37:48.890Z,5848
2018-05-25T13:38:48.853Z,6864
2018-05-25T13:39:48.655Z,7292
2018-05-25T13:40:48.891Z,7308
2018-05-25T13:41:49.138Z,7164
2018-05-25T13:42:49.144Z,7160
2018-05-25T13:43:48.889Z,7176
2018-05-25T13:44:49.158Z,7164
2018-05-25T13:45:48.661Z,7140
2018-05-25T13:46:49.143Z,6768
2018-05-25T13:47:48.891Z,5536
2018-05-25T13:48:49.170Z,5568
2018-05-25T13:49:49.173Z,5528
2018-05-25T13:50:48.399Z,5428
2018-05-25T13:51:49.196Z,5368
2018-05-25T13:52:49.191Z,5352
2018-05-25T13:53:48.936Z,5292
2018-05-25T13:54:48.948Z,5940
2018-05-25T13:55:49.225Z,6684
2018-05-25T13:56:49.206Z,6768
2018-05-25T13:57:49.232Z,6700
2018-05-25T13:58:48.697Z,6680
2018-05-25T13:59:48.958Z,6676
2018-05-25T14:00:48.973Z,6696
2018-05-25T14:01:48.968Z,6808
2018-05-25T14:02:48.969Z,6840
2018-05-25T14:03:48.990Z,6664
2018-05-25T14:04:48.982Z,6644
2018-05-25T14:05:49.253Z,6572
2018-05-25T14:06:49.249Z,6664
2018-05-25T14:07:49.003Z,6624
2018-05-25T14:08:49.292Z,6508
2018-05-25T14:09:48.742Z,6400
2018-05-25T14:10:49.027Z,5036
2018-05-25T14:11:49.510Z,5096
2018-05-25T14:12:48.501Z,5340
2018-05-25T14:13:49.301Z,5788